sensor_id;sensor_type;location;lat;lon;timestamp;P1;durP1;ratioP1;P2;durP2;ratioP2
34497;SDS011;20744;50.938;7.286;2023-07-31T00:00:01;12.35;;;4.88;;
34497;SDS011;20744;50.938;7.286;2023-07-31T00:02:28;13.65;;;4.70;;
34497;SDS011;20744;50.938;7.286;2023-07-31T00:04:55;11.15;;;4.28;;
34497;SDS011;20744;50.938;7.286;2023-07-31T00:07:23;9.48;;;4.45;;
34497;SDS011;20744;50.938;7.286;2023-07-31T00:09:50;12.70;;;4.20;;
34497;SDS011;20744;50.938;7.286;2023-07-31T00:12:18;11.60;;;4.88;;
34497;SDS011;20744;50.938;7.286;2023-07-31T00:14:47;14.60;;;4.53;;
34497;SDS011;20744;50.938;7.286;2023-07-31T00:17:14;13.00;;;4.80;;
34497;SDS011;20744;50.938;7.286;2023-07-31T00:19:41;13.30;;;4.50;;
34497;SDS011;20744;50.938;7.286;2023-07-31T00:22:11;11.40;;;4.30;;
34497;SDS011;20744;50.938;7.286;2023-07-31T00:24:38;13.13;;;4.63;;
34497;SDS011;20744;50.938;7.286;2023-07-31T00:27:06;12.05;;;4.40;;
34497;SDS011;20744;50.938;7.286;2023-07-31T00:29:33;12.55;;;4.00;;
34497;SDS011;20744;50.938;7.286;2023-07-31T00:32:02;13.20;;;4.78;;
34497;SDS011;20744;50.938;7.286;2023-07-31T00:34:29;16.77;;;4.47;;
34497;SDS011;20744;50.938;7.286;2023-07-31T00:36:57;12.43;;;4.63;;
34497;SDS011;20744;50.938;7.286;2023-07-31T00:39:24;10.98;;;4.32;;
34497;SDS011;20744;50.938;7.286;2023-07-31T00:41:51;16.70;;;4.70;;
34497;SDS011;20744;50.938;7.286;2023-07-31T00:44:20;12.60;;;4.53;;
34497;SDS011;20744;50.938;7.286;2023-07-31T00:46:47;11.43;;;4.93;;
34497;SDS011;20744;50.938;7.286;2023-07-31T00:49:16;13.35;;;4.78;;
34497;SDS011;20744;50.938;7.286;2023-07-31T00:51:44;16.48;;;5.20;;
34497;SDS011;20744;50.938;7.286;2023-07-31T00:54:11;19.42;;;5.05;;
34497;SDS011;20744;50.938;7.286;2023-07-31T00:56:38;17.80;;;5.43;;
34497;SDS011;20744;50.938;7.286;2023-07-31T00:59:07;11.45;;;5.22;;
34497;SDS011;20744;50.938;7.286;2023-07-31T01:01:35;17.15;;;5.13;;
34497;SDS011;20744;50.938;7.286;2023-07-31T01:04:05;11.52;;;4.55;;
34497;SDS011;20744;50.938;7.286;2023-07-31T01:06:36;16.10;;;5.32;;
34497;SDS011;20744;50.938;7.286;2023-07-31T01:09:07;14.32;;;4.80;;
34497;SDS011;20744;50.938;7.286;2023-07-31T01:11:37;11.90;;;4.65;;
34497;SDS011;20744;50.938;7.286;2023-07-31T01:14:06;11.63;;;4.38;;
34497;SDS011;20744;50.938;7.286;2023-07-31T01:16:33;15.80;;;4.68;;
34497;SDS011;20744;50.938;7.286;2023-07-31T01:19:00;12.73;;;4.38;;
34497;SDS011;20744;50.938;7.286;2023-07-31T01:21:30;17.38;;;4.72;;
34497;SDS011;20744;50.938;7.286;2023-07-31T01:26:45;13.70;;;3.50;;
34497;SDS011;20744;50.938;7.286;2023-07-31T01:29:14;9.15;;;4.32;;
34497;SDS011;20744;50.938;7.286;2023-07-31T01:31:41;12.20;;;3.92;;
34497;SDS011;20744;50.938;7.286;2023-07-31T01:34:09;14.23;;;4.15;;
34497;SDS011;20744;50.938;7.286;2023-07-31T01:36:37;14.68;;;4.07;;
34497;SDS011;20744;50.938;7.286;2023-07-31T01:39:04;12.05;;;3.95;;
34497;SDS011;20744;50.938;7.286;2023-07-31T01:41:31;7.25;;;3.95;;
34497;SDS011;20744;50.938;7.286;2023-07-31T01:44:00;11.43;;;3.53;;
34497;SDS011;20744;50.938;7.286;2023-07-31T01:46:27;13.20;;;4.30;;
34497;SDS011;20744;50.938;7.286;2023-07-31T01:48:54;15.15;;;4.32;;
34497;SDS011;20744;50.938;7.286;2023-07-31T01:51:22;10.40;;;4.53;;
34497;SDS011;20744;50.938;7.286;2023-07-31T01:53:49;13.90;;;3.60;;
34497;SDS011;20744;50.938;7.286;2023-07-31T01:56:16;14.35;;;3.72;;
34497;SDS011;20744;50.938;7.286;2023-07-31T01:58:44;14.38;;;4.18;;
34497;SDS011;20744;50.938;7.286;2023-07-31T02:01:12;10.05;;;4.20;;
34497;SDS011;20744;50.938;7.286;2023-07-31T02:03:39;13.35;;;4.28;;
34497;SDS011;20744;50.938;7.286;2023-07-31T02:06:10;9.43;;;3.63;;
34497;SDS011;20744;50.938;7.286;2023-07-31T02:08:37;13.68;;;3.80;;
34497;SDS011;20744;50.938;7.286;2023-07-31T02:11:04;10.30;;;3.72;;
34497;SDS011;20744;50.938;7.286;2023-07-31T02:13:32;18.95;;;3.92;;
34497;SDS011;20744;50.938;7.286;2023-07-31T02:15:59;12.23;;;3.67;;
34497;SDS011;20744;50.938;7.286;2023-07-31T02:18:28;15.68;;;3.67;;
34497;SDS011;20744;50.938;7.286;2023-07-31T02:20:55;16.05;;;3.63;;
34497;SDS011;20744;50.938;7.286;2023-07-31T02:23:22;11.65;;;4.18;;
34497;SDS011;20744;50.938;7.286;2023-07-31T02:25:50;12.57;;;4.00;;
34497;SDS011;20744;50.938;7.286;2023-07-31T02:28:17;12.35;;;4.00;;
34497;SDS011;20744;50.938;7.286;2023-07-31T02:30:44;10.35;;;3.80;;
34497;SDS011;20744;50.938;7.286;2023-07-31T02:33:12;15.35;;;4.10;;
34497;SDS011;20744;50.938;7.286;2023-07-31T02:35:41;10.68;;;3.95;;
34497;SDS011;20744;50.938;7.286;2023-07-31T02:38:08;14.85;;;4.25;;
34497;SDS011;20744;50.938;7.286;2023-07-31T02:40:36;9.30;;;3.35;;
34497;SDS011;20744;50.938;7.286;2023-07-31T02:43:03;14.43;;;3.88;;
34497;SDS011;20744;50.938;7.286;2023-07-31T02:45:30;7.55;;;3.65;;
34497;SDS011;20744;50.938;7.286;2023-07-31T02:47:57;11.48;;;3.90;;
34497;SDS011;20744;50.938;7.286;2023-07-31T02:50:25;8.70;;;4.00;;
34497;SDS011;20744;50.938;7.286;2023-07-31T02:52:56;9.02;;;3.40;;
34497;SDS011;20744;50.938;7.286;2023-07-31T02:55:23;11.45;;;3.80;;
34497;SDS011;20744;50.938;7.286;2023-07-31T02:57:50;10.93;;;3.50;;
34497;SDS011;20744;50.938;7.286;2023-07-31T03:00:18;12.80;;;3.70;;
34497;SDS011;20744;50.938;7.286;2023-07-31T03:02:45;11.48;;;3.40;;
34497;SDS011;20744;50.938;7.286;2023-07-31T03:05:13;11.85;;;3.70;;
34497;SDS011;20744;50.938;7.286;2023-07-31T03:07:40;7.25;;;3.50;;
34497;SDS011;20744;50.938;7.286;2023-07-31T03:10:09;11.60;;;3.60;;
34497;SDS011;20744;50.938;7.286;2023-07-31T03:12:36;8.60;;;3.15;;
34497;SDS011;20744;50.938;7.286;2023-07-31T03:15:04;11.55;;;3.67;;
34497;SDS011;20744;50.938;7.286;2023-07-31T03:17:31;8.10;;;3.30;;
34497;SDS011;20744;50.938;7.286;2023-07-31T03:19:59;13.30;;;3.63;;
34497;SDS011;20744;50.938;7.286;2023-07-31T03:22:26;10.65;;;3.50;;
34497;SDS011;20744;50.938;7.286;2023-07-31T03:24:53;10.80;;;3.13;;
34497;SDS011;20744;50.938;7.286;2023-07-31T03:27:22;10.25;;;3.55;;
34497;SDS011;20744;50.938;7.286;2023-07-31T03:29:49;9.95;;;3.65;;
34497;SDS011;20744;50.938;7.286;2023-07-31T03:32:17;9.40;;;3.83;;
34497;SDS011;20744;50.938;7.286;2023-07-31T03:34:44;11.00;;;3.53;;
34497;SDS011;20744;50.938;7.286;2023-07-31T03:37:11;8.93;;;3.20;;
34497;SDS011;20744;50.938;7.286;2023-07-31T03:39:38;8.80;;;3.50;;
34497;SDS011;20744;50.938;7.286;2023-07-31T03:42:06;11.30;;;3.45;;
34497;SDS011;20744;50.938;7.286;2023-07-31T03:44:35;9.85;;;3.95;;
34497;SDS011;20744;50.938;7.286;2023-07-31T03:47:02;9.65;;;3.63;;
34497;SDS011;20744;50.938;7.286;2023-07-31T03:49:29;8.02;;;3.47;;
34497;SDS011;20744;50.938;7.286;2023-07-31T03:51:56;17.15;;;3.80;;
34497;SDS011;20744;50.938;7.286;2023-07-31T03:54:24;14.40;;;3.70;;
34497;SDS011;20744;50.938;7.286;2023-07-31T03:56:54;11.32;;;3.35;;
34497;SDS011;20744;50.938;7.286;2023-07-31T03:59:21;14.52;;;3.88;;
34497;SDS011;20744;50.938;7.286;2023-07-31T04:01:50;10.02;;;3.58;;
34497;SDS011;20744;50.938;7.286;2023-07-31T04:04:17;11.57;;;3.70;;
34497;SDS011;20744;50.938;7.286;2023-07-31T04:06:44;13.75;;;3.83;;
34497;SDS011;20744;50.938;7.286;2023-07-31T04:09:11;14.18;;;3.65;;
34497;SDS011;20744;50.938;7.286;2023-07-31T04:11:39;11.63;;;4.00;;
34497;SDS011;20744;50.938;7.286;2023-07-31T04:14:09;11.85;;;4.47;;
34497;SDS011;20744;50.938;7.286;2023-07-31T04:16:36;17.10;;;4.75;;
34497;SDS011;20744;50.938;7.286;2023-07-31T04:19:05;15.20;;;4.68;;
34497;SDS011;20744;50.938;7.286;2023-07-31T04:21:32;18.33;;;5.32;;
34497;SDS011;20744;50.938;7.286;2023-07-31T04:23:59;13.80;;;5.35;;
34497;SDS011;20744;50.938;7.286;2023-07-31T04:26:26;18.42;;;5.53;;
34497;SDS011;20744;50.938;7.286;2023-07-31T04:28:53;13.88;;;5.85;;
34497;SDS011;20744;50.938;7.286;2023-07-31T04:31:21;18.17;;;5.40;;
34497;SDS011;20744;50.938;7.286;2023-07-31T04:33:48;16.65;;;5.57;;
34497;SDS011;20744;50.938;7.286;2023-07-31T04:36:17;13.65;;;5.57;;
34497;SDS011;20744;50.938;7.286;2023-07-31T04:38:44;15.85;;;5.45;;
34497;SDS011;20744;50.938;7.286;2023-07-31T04:41:11;14.52;;;5.20;;
34497;SDS011;20744;50.938;7.286;2023-07-31T04:43:40;15.65;;;5.65;;
34497;SDS011;20744;50.938;7.286;2023-07-31T04:46:08;15.25;;;5.63;;
34497;SDS011;20744;50.938;7.286;2023-07-31T04:48:37;10.02;;;4.82;;
34497;SDS011;20744;50.938;7.286;2023-07-31T04:51:04;22.92;;;5.95;;
34497;SDS011;20744;50.938;7.286;2023-07-31T04:53:33;16.23;;;5.20;;
34497;SDS011;20744;50.938;7.286;2023-07-31T04:56:01;18.08;;;5.28;;
34497;SDS011;20744;50.938;7.286;2023-07-31T04:58:28;12.32;;;5.03;;
34497;SDS011;20744;50.938;7.286;2023-07-31T05:00:56;11.15;;;4.80;;
34497;SDS011;20744;50.938;7.286;2023-07-31T05:03:23;19.08;;;5.53;;
34497;SDS011;20744;50.938;7.286;2023-07-31T05:05:50;19.70;;;5.25;;
34497;SDS011;20744;50.938;7.286;2023-07-31T05:08:17;17.77;;;5.28;;
34497;SDS011;20744;50.938;7.286;2023-07-31T05:10:46;10.85;;;4.78;;
34497;SDS011;20744;50.938;7.286;2023-07-31T05:13:13;13.48;;;5.20;;
34497;SDS011;20744;50.938;7.286;2023-07-31T05:15:41;14.60;;;4.90;;
34497;SDS011;20744;50.938;7.286;2023-07-31T05:18:08;16.50;;;5.82;;
34497;SDS011;20744;50.938;7.286;2023-07-31T05:20:35;11.75;;;4.63;;
34497;SDS011;20744;50.938;7.286;2023-07-31T05:23:04;14.43;;;5.07;;
34497;SDS011;20744;50.938;7.286;2023-07-31T05:25:31;14.50;;;5.20;;
34497;SDS011;20744;50.938;7.286;2023-07-31T05:28:00;15.98;;;5.72;;
34497;SDS011;20744;50.938;7.286;2023-07-31T05:30:29;15.30;;;5.18;;
34497;SDS011;20744;50.938;7.286;2023-07-31T05:32:56;18.17;;;5.25;;
34497;SDS011;20744;50.938;7.286;2023-07-31T05:35:24;12.18;;;4.97;;
34497;SDS011;20744;50.938;7.286;2023-07-31T05:37:51;14.85;;;4.78;;
34497;SDS011;20744;50.938;7.286;2023-07-31T05:40:18;17.65;;;5.25;;
34497;SDS011;20744;50.938;7.286;2023-07-31T05:42:45;10.93;;;4.65;;
34497;SDS011;20744;50.938;7.286;2023-07-31T05:45:14;16.75;;;5.32;;
34497;SDS011;20744;50.938;7.286;2023-07-31T05:47:41;13.80;;;5.30;;
34497;SDS011;20744;50.938;7.286;2023-07-31T05:50:09;14.40;;;5.30;;
34497;SDS011;20744;50.938;7.286;2023-07-31T05:52:36;15.30;;;5.18;;
34497;SDS011;20744;50.938;7.286;2023-07-31T05:55:07;15.25;;;4.85;;
34497;SDS011;20744;50.938;7.286;2023-07-31T05:57:35;12.65;;;4.38;;
34497;SDS011;20744;50.938;7.286;2023-07-31T06:00:02;14.20;;;4.90;;
34497;SDS011;20744;50.938;7.286;2023-07-31T06:02:32;13.23;;;5.32;;
34497;SDS011;20744;50.938;7.286;2023-07-31T06:05:01;9.30;;;4.90;;
34497;SDS011;20744;50.938;7.286;2023-07-31T06:07:29;11.73;;;4.60;;
34497;SDS011;20744;50.938;7.286;2023-07-31T06:09:56;9.20;;;5.00;;
34497;SDS011;20744;50.938;7.286;2023-07-31T06:12:28;13.57;;;4.60;;
34497;SDS011;20744;50.938;7.286;2023-07-31T06:14:56;15.15;;;5.22;;
34497;SDS011;20744;50.938;7.286;2023-07-31T06:17:23;12.57;;;4.63;;
34497;SDS011;20744;50.938;7.286;2023-07-31T06:19:52;16.60;;;4.90;;
34497;SDS011;20744;50.938;7.286;2023-07-31T06:22:20;17.80;;;5.00;;
34497;SDS011;20744;50.938;7.286;2023-07-31T06:24:47;12.50;;;5.03;;
34497;SDS011;20744;50.938;7.286;2023-07-31T06:27:14;9.43;;;4.75;;
34497;SDS011;20744;50.938;7.286;2023-07-31T06:29:42;12.18;;;4.70;;
34497;SDS011;20744;50.938;7.286;2023-07-31T06:32:09;10.23;;;4.88;;
34497;SDS011;20744;50.938;7.286;2023-07-31T06:34:36;12.18;;;4.70;;
34497;SDS011;20744;50.938;7.286;2023-07-31T06:37:05;11.15;;;4.63;;
34497;SDS011;20744;50.938;7.286;2023-07-31T06:39:33;10.98;;;4.57;;
34497;SDS011;20744;50.938;7.286;2023-07-31T06:42:00;10.93;;;4.75;;
34497;SDS011;20744;50.938;7.286;2023-07-31T06:44:27;9.60;;;4.97;;
34497;SDS011;20744;50.938;7.286;2023-07-31T06:46:55;18.02;;;4.72;;
34497;SDS011;20744;50.938;7.286;2023-07-31T06:49:22;9.77;;;4.82;;
34497;SDS011;20744;50.938;7.286;2023-07-31T06:51:49;10.77;;;4.50;;
34497;SDS011;20744;50.938;7.286;2023-07-31T06:54:18;12.35;;;4.78;;
34497;SDS011;20744;50.938;7.286;2023-07-31T06:56:45;9.23;;;4.80;;
34497;SDS011;20744;50.938;7.286;2023-07-31T06:59:12;13.15;;;4.82;;
34497;SDS011;20744;50.938;7.286;2023-07-31T07:01:41;10.38;;;4.68;;
34497;SDS011;20744;50.938;7.286;2023-07-31T07:04:08;13.50;;;4.85;;
34497;SDS011;20744;50.938;7.286;2023-07-31T07:06:36;13.20;;;4.85;;
34497;SDS011;20744;50.938;7.286;2023-07-31T07:09:03;12.35;;;5.55;;
34497;SDS011;20744;50.938;7.286;2023-07-31T07:11:32;11.70;;;4.65;;
34497;SDS011;20744;50.938;7.286;2023-07-31T07:14:00;11.57;;;4.88;;
34497;SDS011;20744;50.938;7.286;2023-07-31T07:16:28;15.00;;;5.90;;
34497;SDS011;20744;50.938;7.286;2023-07-31T07:18:55;11.70;;;5.07;;
34497;SDS011;20744;50.938;7.286;2023-07-31T07:21:25;10.13;;;5.10;;
34497;SDS011;20744;50.938;7.286;2023-07-31T07:23:52;10.13;;;4.55;;
34497;SDS011;20744;50.938;7.286;2023-07-31T07:26:19;11.55;;;4.85;;
34497;SDS011;20744;50.938;7.286;2023-07-31T07:28:48;9.85;;;4.50;;
34497;SDS011;20744;50.938;7.286;2023-07-31T07:31:15;12.98;;;4.90;;
34497;SDS011;20744;50.938;7.286;2023-07-31T07:33:42;11.30;;;4.47;;
34497;SDS011;20744;50.938;7.286;2023-07-31T07:36:10;8.82;;;4.40;;
34497;SDS011;20744;50.938;7.286;2023-07-31T07:38:38;11.75;;;3.97;;
34497;SDS011;20744;50.938;7.286;2023-07-31T07:41:06;11.55;;;4.22;;
34497;SDS011;20744;50.938;7.286;2023-07-31T07:43:33;5.85;;;3.70;;
34497;SDS011;20744;50.938;7.286;2023-07-31T07:46:02;10.32;;;4.45;;
34497;SDS011;20744;50.938;7.286;2023-07-31T07:48:29;8.43;;;3.70;;
34497;SDS011;20744;50.938;7.286;2023-07-31T07:50:57;7.55;;;4.22;;
34497;SDS011;20744;50.938;7.286;2023-07-31T07:53:24;10.35;;;4.38;;
34497;SDS011;20744;50.938;7.286;2023-07-31T07:55:51;8.77;;;4.53;;
34497;SDS011;20744;50.938;7.286;2023-07-31T07:58:18;14.00;;;4.45;;
34497;SDS011;20744;50.938;7.286;2023-07-31T08:00:48;11.38;;;4.72;;
34497;SDS011;20744;50.938;7.286;2023-07-31T08:03:17;9.48;;;4.47;;
34497;SDS011;20744;50.938;7.286;2023-07-31T08:05:44;15.93;;;4.97;;
34497;SDS011;20744;50.938;7.286;2023-07-31T08:08:13;9.30;;;4.80;;
34497;SDS011;20744;50.938;7.286;2023-07-31T08:10:41;10.32;;;4.38;;
34497;SDS011;20744;50.938;7.286;2023-07-31T08:13:09;10.98;;;4.97;;
34497;SDS011;20744;50.938;7.286;2023-07-31T08:15:36;12.98;;;4.60;;
34497;SDS011;20744;50.938;7.286;2023-07-31T08:18:03;16.00;;;5.63;;
34497;SDS011;20744;50.938;7.286;2023-07-31T08:20:32;10.90;;;5.15;;
34497;SDS011;20744;50.938;7.286;2023-07-31T08:22:59;11.43;;;5.53;;
34497;SDS011;20744;50.938;7.286;2023-07-31T08:25:26;9.80;;;5.57;;
34497;SDS011;20744;50.938;7.286;2023-07-31T08:27:54;11.27;;;5.25;;
34497;SDS011;20744;50.938;7.286;2023-07-31T08:30:21;14.10;;;5.60;;
34497;SDS011;20744;50.938;7.286;2023-07-31T08:32:49;13.60;;;5.82;;
34497;SDS011;20744;50.938;7.286;2023-07-31T08:35:16;11.48;;;5.15;;
34497;SDS011;20744;50.938;7.286;2023-07-31T08:37:45;10.23;;;5.40;;
34497;SDS011;20744;50.938;7.286;2023-07-31T08:40:12;14.65;;;6.22;;
34497;SDS011;20744;50.938;7.286;2023-07-31T08:42:43;13.52;;;5.10;;
34497;SDS011;20744;50.938;7.286;2023-07-31T08:45:12;12.05;;;5.15;;
34497;SDS011;20744;50.938;7.286;2023-07-31T08:47:40;13.02;;;4.85;;
34497;SDS011;20744;50.938;7.286;2023-07-31T08:50:07;13.70;;;4.63;;
34497;SDS011;20744;50.938;7.286;2023-07-31T08:52:35;10.38;;;4.60;;
34497;SDS011;20744;50.938;7.286;2023-07-31T08:55:04;10.48;;;4.88;;
34497;SDS011;20744;50.938;7.286;2023-07-31T08:57:32;9.40;;;4.75;;
34497;SDS011;20744;50.938;7.286;2023-07-31T09:00:00;11.77;;;4.47;;
34497;SDS011;20744;50.938;7.286;2023-07-31T09:02:29;10.80;;;4.63;;
34497;SDS011;20744;50.938;7.286;2023-07-31T09:04:58;11.02;;;4.57;;
34497;SDS011;20744;50.938;7.286;2023-07-31T09:07:25;8.20;;;4.20;;
34497;SDS011;20744;50.938;7.286;2023-07-31T09:09:53;10.52;;;4.93;;
34497;SDS011;20744;50.938;7.286;2023-07-31T09:12:21;10.18;;;4.25;;
34497;SDS011;20744;50.938;7.286;2023-07-31T09:14:49;8.35;;;4.28;;
34497;SDS011;20744;50.938;7.286;2023-07-31T09:17:16;13.77;;;4.60;;
34497;SDS011;20744;50.938;7.286;2023-07-31T09:19:55;10.23;;;4.32;;
34497;SDS011;20744;50.938;7.286;2023-07-31T09:22:31;9.10;;;4.05;;
34497;SDS011;20744;50.938;7.286;2023-07-31T09:25:03;8.95;;;4.00;;
34497;SDS011;20744;50.938;7.286;2023-07-31T09:27:40;8.57;;;3.97;;
34497;SDS011;20744;50.938;7.286;2023-07-31T09:30:12;8.98;;;4.72;;
34497;SDS011;20744;50.938;7.286;2023-07-31T09:32:40;10.68;;;4.40;;
34497;SDS011;20744;50.938;7.286;2023-07-31T09:35:14;8.93;;;4.32;;
34497;SDS011;20744;50.938;7.286;2023-07-31T09:37:43;10.77;;;4.18;;
34497;SDS011;20744;50.938;7.286;2023-07-31T09:40:11;11.15;;;4.43;;
34497;SDS011;20744;50.938;7.286;2023-07-31T09:42:53;9.85;;;4.53;;
34497;SDS011;20744;50.938;7.286;2023-07-31T09:45:20;17.13;;;4.22;;
34497;SDS011;20744;50.938;7.286;2023-07-31T09:47:47;16.15;;;4.55;;
34497;SDS011;20744;50.938;7.286;2023-07-31T09:50:15;12.52;;;4.20;;
34497;SDS011;20744;50.938;7.286;2023-07-31T09:52:42;7.60;;;4.03;;
34497;SDS011;20744;50.938;7.286;2023-07-31T09:55:10;8.18;;;4.05;;
34497;SDS011;20744;50.938;7.286;2023-07-31T09:57:39;11.50;;;3.78;;
34497;SDS011;20744;50.938;7.286;2023-07-31T10:00:08;7.13;;;3.42;;
34497;SDS011;20744;50.938;7.286;2023-07-31T10:02:36;9.35;;;3.75;;
34497;SDS011;20744;50.938;7.286;2023-07-31T10:05:05;9.35;;;3.90;;
34497;SDS011;20744;50.938;7.286;2023-07-31T10:07:34;10.45;;;3.47;;
34497;SDS011;20744;50.938;7.286;2023-07-31T10:10:03;9.00;;;3.72;;
34497;SDS011;20744;50.938;7.286;2023-07-31T10:12:32;9.52;;;3.35;;
34497;SDS011;20744;50.938;7.286;2023-07-31T10:15:00;8.55;;;3.38;;
34497;SDS011;20744;50.938;7.286;2023-07-31T10:17:30;13.57;;;4.05;;
34497;SDS011;20744;50.938;7.286;2023-07-31T10:19:57;10.93;;;3.25;;
34497;SDS011;20744;50.938;7.286;2023-07-31T10:22:26;7.70;;;3.60;;
34497;SDS011;20744;50.938;7.286;2023-07-31T10:24:54;6.30;;;3.33;;
34497;SDS011;20744;50.938;7.286;2023-07-31T10:27:22;8.38;;;3.35;;
34497;SDS011;20744;50.938;7.286;2023-07-31T10:29:49;7.22;;;3.45;;
34497;SDS011;20744;50.938;7.286;2023-07-31T10:32:17;7.85;;;3.53;;
34497;SDS011;20744;50.938;7.286;2023-07-31T10:34:46;5.63;;;3.60;;
34497;SDS011;20744;50.938;7.286;2023-07-31T10:37:21;8.50;;;3.67;;
34497;SDS011;20744;50.938;7.286;2023-07-31T10:39:55;11.07;;;3.50;;
34497;SDS011;20744;50.938;7.286;2023-07-31T10:42:27;8.50;;;3.37;;
34497;SDS011;20744;50.938;7.286;2023-07-31T10:44:56;9.68;;;3.78;;
34497;SDS011;20744;50.938;7.286;2023-07-31T10:47:23;6.57;;;3.72;;
34497;SDS011;20744;50.938;7.286;2023-07-31T10:49:52;7.68;;;3.70;;
34497;SDS011;20744;50.938;7.286;2023-07-31T10:52:20;11.55;;;4.32;;
34497;SDS011;20744;50.938;7.286;2023-07-31T10:54:59;11.70;;;4.07;;
34497;SDS011;20744;50.938;7.286;2023-07-31T10:57:46;14.63;;;4.00;;
34497;SDS011;20744;50.938;7.286;2023-07-31T11:00:17;8.30;;;3.67;;
34497;SDS011;20744;50.938;7.286;2023-07-31T11:02:54;8.18;;;4.10;;
34497;SDS011;20744;50.938;7.286;2023-07-31T11:05:24;8.95;;;3.88;;
34497;SDS011;20744;50.938;7.286;2023-07-31T11:08:14;10.90;;;3.63;;
34497;SDS011;20744;50.938;7.286;2023-07-31T11:10:42;7.53;;;3.67;;
34497;SDS011;20744;50.938;7.286;2023-07-31T11:13:10;7.15;;;3.63;;
34497;SDS011;20744;50.938;7.286;2023-07-31T11:15:38;10.70;;;4.25;;
34497;SDS011;20744;50.938;7.286;2023-07-31T11:18:05;7.72;;;3.47;;
34497;SDS011;20744;50.938;7.286;2023-07-31T11:20:35;8.00;;;3.97;;
34497;SDS011;20744;50.938;7.286;2023-07-31T11:23:03;7.68;;;3.80;;
34497;SDS011;20744;50.938;7.286;2023-07-31T11:25:31;13.45;;;3.78;;
34497;SDS011;20744;50.938;7.286;2023-07-31T11:28:01;8.90;;;3.78;;
34497;SDS011;20744;50.938;7.286;2023-07-31T11:30:28;11.07;;;3.90;;
34497;SDS011;20744;50.938;7.286;2023-07-31T11:32:56;10.15;;;4.10;;
34497;SDS011;20744;50.938;7.286;2023-07-31T11:35:23;11.98;;;3.90;;
34497;SDS011;20744;50.938;7.286;2023-07-31T11:37:52;9.40;;;4.25;;
34497;SDS011;20744;50.938;7.286;2023-07-31T11:40:19;8.68;;;3.47;;
34497;SDS011;20744;50.938;7.286;2023-07-31T11:42:46;10.05;;;3.20;;
34497;SDS011;20744;50.938;7.286;2023-07-31T11:45:14;8.75;;;3.00;;
34497;SDS011;20744;50.938;7.286;2023-07-31T11:47:41;6.13;;;2.90;;
34497;SDS011;20744;50.938;7.286;2023-07-31T11:50:10;5.05;;;2.65;;
34497;SDS011;20744;50.938;7.286;2023-07-31T11:52:39;7.95;;;2.65;;
34497;SDS011;20744;50.938;7.286;2023-07-31T11:55:08;5.65;;;2.85;;
34497;SDS011;20744;50.938;7.286;2023-07-31T11:57:37;4.10;;;2.00;;
34497;SDS011;20744;50.938;7.286;2023-07-31T12:00:06;6.22;;;2.35;;
34497;SDS011;20744;50.938;7.286;2023-07-31T12:02:34;8.45;;;2.53;;
34497;SDS011;20744;50.938;7.286;2023-07-31T12:05:02;5.03;;;2.13;;
34497;SDS011;20744;50.938;7.286;2023-07-31T12:07:42;4.35;;;2.08;;
34497;SDS011;20744;50.938;7.286;2023-07-31T12:10:11;7.97;;;1.90;;
34497;SDS011;20744;50.938;7.286;2023-07-31T12:12:38;5.00;;;2.10;;
34497;SDS011;20744;50.938;7.286;2023-07-31T12:15:13;3.20;;;1.88;;
34497;SDS011;20744;50.938;7.286;2023-07-31T12:17:40;5.20;;;1.92;;
34497;SDS011;20744;50.938;7.286;2023-07-31T12:20:08;6.15;;;1.77;;
34497;SDS011;20744;50.938;7.286;2023-07-31T12:22:35;5.47;;;2.10;;
34497;SDS011;20744;50.938;7.286;2023-07-31T12:25:03;7.72;;;1.80;;
34497;SDS011;20744;50.938;7.286;2023-07-31T12:27:33;5.95;;;1.77;;
34497;SDS011;20744;50.938;7.286;2023-07-31T12:30:03;4.47;;;1.80;;
34497;SDS011;20744;50.938;7.286;2023-07-31T12:32:31;5.70;;;1.70;;
34497;SDS011;20744;50.938;7.286;2023-07-31T12:34:59;9.68;;;1.90;;
34497;SDS011;20744;50.938;7.286;2023-07-31T12:37:28;2.42;;;1.60;;
34497;SDS011;20744;50.938;7.286;2023-07-31T12:39:57;5.65;;;1.63;;
34497;SDS011;20744;50.938;7.286;2023-07-31T12:42:30;10.52;;;1.80;;
34497;SDS011;20744;50.938;7.286;2023-07-31T12:44:59;3.22;;;1.95;;
34497;SDS011;20744;50.938;7.286;2023-07-31T12:47:29;4.45;;;1.70;;
34497;SDS011;20744;50.938;7.286;2023-07-31T12:49:57;2.35;;;1.85;;
34497;SDS011;20744;50.938;7.286;2023-07-31T12:52:24;5.63;;;1.98;;
34497;SDS011;20744;50.938;7.286;2023-07-31T12:54:51;5.28;;;1.80;;
34497;SDS011;20744;50.938;7.286;2023-07-31T12:57:19;4.18;;;1.55;;
34497;SDS011;20744;50.938;7.286;2023-07-31T12:59:46;4.35;;;1.60;;
34497;SDS011;20744;50.938;7.286;2023-07-31T13:02:15;5.75;;;2.22;;
34497;SDS011;20744;50.938;7.286;2023-07-31T13:04:42;3.38;;;1.75;;
34497;SDS011;20744;50.938;7.286;2023-07-31T13:07:09;4.05;;;1.73;;
34497;SDS011;20744;50.938;7.286;2023-07-31T13:09:42;5.40;;;1.90;;
34497;SDS011;20744;50.938;7.286;2023-07-31T13:12:09;4.57;;;1.70;;
34497;SDS011;20744;50.938;7.286;2023-07-31T13:14:37;3.50;;;1.70;;
34497;SDS011;20744;50.938;7.286;2023-07-31T13:17:04;3.30;;;1.73;;
34497;SDS011;20744;50.938;7.286;2023-07-31T13:19:33;2.78;;;1.73;;
34497;SDS011;20744;50.938;7.286;2023-07-31T13:22:00;2.70;;;1.80;;
34497;SDS011;20744;50.938;7.286;2023-07-31T13:24:27;5.43;;;1.70;;
34497;SDS011;20744;50.938;7.286;2023-07-31T13:26:55;2.92;;;1.85;;
34497;SDS011;20744;50.938;7.286;2023-07-31T13:29:22;3.80;;;1.70;;
34497;SDS011;20744;50.938;7.286;2023-07-31T13:31:50;5.10;;;2.10;;
34497;SDS011;20744;50.938;7.286;2023-07-31T13:34:18;6.65;;;1.92;;
34497;SDS011;20744;50.938;7.286;2023-07-31T13:36:49;5.88;;;2.28;;
34497;SDS011;20744;50.938;7.286;2023-07-31T13:39:17;5.95;;;2.28;;
34497;SDS011;20744;50.938;7.286;2023-07-31T13:41:44;4.60;;;2.33;;
34497;SDS011;20744;50.938;7.286;2023-07-31T13:44:11;7.30;;;2.53;;
34497;SDS011;20744;50.938;7.286;2023-07-31T13:46:39;4.25;;;2.33;;
34497;SDS011;20744;50.938;7.286;2023-07-31T13:49:06;6.80;;;2.58;;
34497;SDS011;20744;50.938;7.286;2023-07-31T13:51:33;4.70;;;2.50;;
34497;SDS011;20744;50.938;7.286;2023-07-31T13:54:05;4.18;;;2.70;;
34497;SDS011;20744;50.938;7.286;2023-07-31T13:56:36;6.43;;;2.30;;
34497;SDS011;20744;50.938;7.286;2023-07-31T13:59:03;5.53;;;2.97;;
34497;SDS011;20744;50.938;7.286;2023-07-31T14:01:30;3.60;;;2.70;;
34497;SDS011;20744;50.938;7.286;2023-07-31T14:04:00;5.63;;;2.60;;
34497;SDS011;20744;50.938;7.286;2023-07-31T14:06:27;4.53;;;2.70;;
34497;SDS011;20744;50.938;7.286;2023-07-31T14:08:55;3.83;;;2.75;;
34497;SDS011;20744;50.938;7.286;2023-07-31T14:11:23;6.13;;;3.03;;
34497;SDS011;20744;50.938;7.286;2023-07-31T14:13:51;7.18;;;3.10;;
34497;SDS011;20744;50.938;7.286;2023-07-31T14:16:18;6.15;;;3.05;;
34497;SDS011;20744;50.938;7.286;2023-07-31T14:18:45;5.70;;;2.50;;
34497;SDS011;20744;50.938;7.286;2023-07-31T14:21:13;3.50;;;2.60;;
34497;SDS011;20744;50.938;7.286;2023-07-31T14:23:40;7.88;;;2.85;;
34497;SDS011;20744;50.938;7.286;2023-07-31T14:26:08;3.95;;;2.30;;
34497;SDS011;20744;50.938;7.286;2023-07-31T14:28:36;4.10;;;2.35;;
34497;SDS011;20744;50.938;7.286;2023-07-31T14:31:04;4.25;;;2.10;;
34497;SDS011;20744;50.938;7.286;2023-07-31T14:33:31;2.58;;;1.73;;
34497;SDS011;20744;50.938;7.286;2023-07-31T14:35:59;8.38;;;1.95;;
34497;SDS011;20744;50.938;7.286;2023-07-31T14:38:26;7.10;;;2.33;;
34497;SDS011;20744;50.938;7.286;2023-07-31T14:40:53;7.97;;;2.10;;
34497;SDS011;20744;50.938;7.286;2023-07-31T14:43:21;7.18;;;2.05;;
34497;SDS011;20744;50.938;7.286;2023-07-31T14:45:49;12.43;;;2.40;;
34497;SDS011;20744;50.938;7.286;2023-07-31T14:48:18;3.58;;;2.00;;